ADDS METAR Data INFO
IDs: Format: Raw Decoded Include TAF

Data at: 1320 UTC 11 Dec 2017

KFOT 111300Z AUTO 15010KT 10SM CLR 05/00 A3026 RMK AO1
KFOT 111255Z AUTO 14011KT 10SM CLR 05/00 A3026 RMK AO1
KFOT 111235Z AUTO 15010KT 10SM CLR 05/00 A3025 RMK AO1
KFOT 111215Z AUTO 15011KT 10SM CLR 05/01 A3025 RMK AO1
KFOT 111155Z AUTO 14012KT 10SM CLR 05/01 A3025 RMK AO1
KFOT 111135Z AUTO 14012KT 10SM CLR 06/00 A3025 RMK AO1
KFOT 111110Z AUTO 15011KT 10SM CLR 06/01 A3026 RMK AO1
KFOT 111055Z AUTO 14012KT 10SM CLR 06/01 A3026 RMK AO1
KFOT 111035Z AUTO 15010KT 10SM CLR 07/02 A3025 RMK AO1
KFOT 111015Z AUTO 15010KT 10SM CLR 07/02 A3025 RMK AO1
KFOT 110955Z AUTO 14010KT 10SM CLR 05/02 A3025 RMK AO1
KFOT 110935Z AUTO 14011KT 10SM CLR 08/02 A3024 RMK AO1
KFOT 110915Z AUTO 15009KT 10SM CLR 06/03 A3023 RMK AO1
KFOT 110855Z AUTO 15009KT 10SM CLR 05/02 A3023 RMK AO1
KFOT 110835Z AUTO 16010KT 10SM CLR 07/02 A3022 RMK AO1
KFOT 110815Z AUTO 15008KT 10SM CLR 05/03 A3022 RMK AO1
KFOT 110755Z AUTO 15010KT 10SM CLR 06/03 A3022 RMK AO1
KFOT 110735Z AUTO 15011KT 10SM CLR 07/03 A3022 RMK AO1
KFOT 110715Z AUTO 14012KT 10SM CLR 07/03 A3023 RMK AO1
KFOT 110655Z AUTO 14013KT 10SM CLR 07/03 A3022 RMK AO1
KFOT 110635Z AUTO 14011KT 10SM CLR 06/04 A3022 RMK AO1
KFOT 110610Z AUTO 15011KT 10SM CLR 07/04 A3022 RMK AO1
KFOT 110555Z AUTO 14012KT 10SM CLR 07/04 A3023 RMK AO1
KFOT 110535Z AUTO 15010KT 10SM CLR 06/04 A3023 RMK AO1
KFOT 110515Z AUTO 15012KT 10SM CLR 07/05 A3023 RMK AO1
KFOT 110455Z AUTO 14010KT 10SM CLR 07/05 A3023 RMK AO1
KFOT 110435Z AUTO 14011KT 10SM CLR 07/05 A3022 RMK AO1
KFOT 110415Z AUTO 14011KT 10SM CLR 08/05 A3022 RMK AO1
KFOT 110355Z AUTO 14010KT 10SM CLR 08/06 A3021 RMK AO1
KFOT 110335Z AUTO 14011KT 10SM CLR 08/06 A3021 RMK AO1
KFOT 110315Z AUTO 13010KT 10SM CLR 09/07 A3020 RMK AO1
KFOT 110255Z AUTO 14008KT 10SM CLR 08/07 A3020 RMK AO1
KFOT 110235Z AUTO 13009KT 10SM CLR 09/07 A3019 RMK AO1
KFOT 110215Z AUTO 14008KT 10SM CLR 10/07 A3019 RMK AO1
KFOT 110155Z AUTO 14008KT 10SM CLR 10/06 A3019 RMK AO1
KFOT 110135Z AUTO 14007KT 10SM CLR 11/06 A3020 RMK AO1
KFOT 110115Z AUTO 14006KT 10SM CLR 12/06 A3019 RMK AO1
KFOT 110055Z AUTO 14006KT 10SM CLR 12/05 A3019 RMK AO1
KFOT 110035Z AUTO 14006KT 10SM CLR 14/05 A3019 RMK AO1
KFOT 110015Z AUTO 00000KT 10SM CLR 16/08 A3020 RMK AO1
KFOT 102355Z AUTO 00000KT 10SM CLR 17/05 A3020 RMK AO1
KFOT 102335Z AUTO 00000KT 10SM CLR 17/07 A3020 RMK AO1
KFOT 102315Z AUTO 00000KT 10SM CLR 17/07 A3020 RMK AO1
KFOT 102255Z AUTO 00000KT 10SM CLR 18/05 A3021 RMK AO1
KFOT 102235Z AUTO 00000KT 10SM CLR 18/03 A3021 RMK AO1
KFOT 102215Z AUTO 00000KT 10SM CLR 18/03 A3022 RMK AO1
KFOT 102155Z AUTO 24003KT 10SM CLR 18/03 A3022 RMK AO1
KFOT 102135Z AUTO 00000KT 10SM CLR 18/02 A3023 RMK AO1
KFOT 102115Z AUTO 00000KT 10SM CLR 17/03 A3023 RMK AO1
KFOT 102055Z AUTO 15005KT 10SM CLR 15/03 A3023 RMK AO1
KFOT 102035Z AUTO 15006KT 10SM CLR 15/03 A3024 RMK AO1
KFOT 102015Z AUTO 14006KT 10SM CLR 15/04 A3025 RMK AO1
KFOT 101955Z AUTO 15006KT 10SM CLR 14/03 A3025 RMK AO1
KFOT 101935Z AUTO 15007KT 10SM CLR 13/04 A3026 RMK AO1
KFOT 101915Z AUTO 16007KT 10SM CLR 12/04 A3026 RMK AO1
KFOT 101855Z AUTO 14009KT 10SM CLR 11/03 A3026 RMK AO1
KFOT 101835Z AUTO 16009KT 10SM CLR 10/04 A3027 RMK AO1
KFOT 101815Z AUTO 16010KT 10SM CLR 09/03 A3027 RMK AO1
KFOT 101755Z AUTO 16010KT 10SM CLR 08/03 A3027 RMK AO1
KFOT 101735Z AUTO 15010KT 10SM CLR 07/02 A3027 RMK AO1
KFOT 101715Z AUTO 15009KT 10SM CLR 06/02 A3027 RMK AO1
KFOT 101655Z AUTO 15010KT 10SM CLR 05/02 A3027 RMK AO1
KFOT 101635Z AUTO 15010KT 10SM CLR 04/01 A3027 RMK AO1
KFOT 101615Z AUTO 15009KT 6SM CLR 04/00 A3027 RMK AO1
KFOT 101555Z AUTO 14011KT 1/4SM VV002 04/00 A3027 RMK AO1 VSBY M1/4V5
KFOT 101535Z AUTO 15011KT 10SM CLR 04/00 A3027 RMK AO1
KFOT 101515Z AUTO 15011KT 10SM CLR 04/00 A3027 RMK AO1
KFOT 101455Z AUTO 14012KT 10SM CLR 04/00 A3027 RMK AO1
KFOT 101435Z AUTO 14012KT 10SM CLR 03/01 A3027 RMK AO1
KFOT 101415Z AUTO 14012KT 10SM CLR 04/01 A3027 RMK AO1
KFOT 101350Z AUTO 14011KT 10SM CLR 04/01 A3027 RMK AO1
KFOT 101335Z AUTO 14011KT 10SM CLR 04/01 A3027 RMK AO1
KFOT 101315Z AUTO 14011KT 10SM CLR 04/02 A3027 RMK AO1
KFOT 101255Z AUTO 14011KT 10SM CLR 04/02 A3028 RMK AO1
KFOT 101235Z AUTO 15010KT 10SM CLR 04/02 A3028 RMK AO1
KFOT 101145Z AUTO 15008KT 10SM CLR 05/03 A3029 RMK AO1
KFOT 101135Z AUTO 15008KT 10SM CLR 05/03 A3029 RMK AO1
KFOT 101115Z AUTO 14008KT 10SM CLR 05/03 A3029 RMK AO1
KFOT 101055Z AUTO 14009KT 10SM CLR 05/03 A3029 RMK AO1
KFOT 101035Z AUTO 15009KT 10SM CLR 05/03 A3028 RMK AO1
KFOT 101010Z AUTO 15008KT 10SM CLR 05/03 A3028 RMK AO1
KFOT 100955Z AUTO 15009KT 10SM CLR 05/03 A3028 RMK AO1
KFOT 100935Z AUTO 15009KT 10SM CLR 05/03 A3028 RMK AO1
KFOT 100915Z AUTO 15009KT 10SM CLR 05/03 A3028 RMK AO1
KFOT 100855Z AUTO 15009KT 10SM CLR 05/03 A3028 RMK AO1
KFOT 100835Z AUTO 15010KT 10SM CLR 05/03 A3028 RMK AO1
KFOT 100815Z AUTO 15010KT 10SM CLR 05/03 A3029 RMK AO1
KFOT 100755Z AUTO 15012KT 10SM CLR 05/03 A3029 RMK AO1
KFOT 100735Z AUTO 14012KT 10SM CLR 05/04 A3029 RMK AO1
KFOT 100715Z AUTO 14012KT 10SM CLR 05/04 A3030 RMK AO1
KFOT 100655Z AUTO 14011KT 10SM CLR 05/04 A3030 RMK AO1
KFOT 100635Z AUTO 14012KT 10SM CLR 06/04 A3030 RMK AO1
KFOT 100615Z AUTO 14012KT 10SM CLR 05/04 A3030 RMK AO1
KFOT 100555Z AUTO 14012KT 10SM CLR 06/04 A3030 RMK AO1
KFOT 100535Z AUTO 13011KT 10SM CLR 07/04 A3030 RMK AO1
KFOT 100515Z AUTO 13011KT 10SM CLR 08/05 A3031 RMK AO1
KFOT 100455Z AUTO 14010KT 10SM CLR 07/05 A3032 RMK AO1
KFOT 100435Z AUTO 14010KT 10SM CLR 06/05 A3031 RMK AO1
KFOT 100415Z AUTO 15009KT 10SM CLR 07/05 A3032 RMK AO1
KFOT 100355Z AUTO 15008KT 10SM CLR 07/05 A3032 RMK AO1
KFOT 100335Z AUTO 14009KT 10SM CLR 07/06 A3031 RMK AO1
KFOT 100315Z AUTO 15008KT 10SM CLR 07/06 A3032 RMK AO1
KFOT 100255Z AUTO 14009KT 10SM CLR 08/06 A3032 RMK AO1
KFOT 100235Z AUTO 15007KT 10SM CLR 08/06 A3032 RMK AO1
KFOT 100215Z AUTO 15008KT 10SM CLR 08/07 A3032 RMK AO1
KFOT 100155Z AUTO 15006KT 10SM CLR 09/06 A3032 RMK AO1
KFOT 100135Z AUTO 14006KT 10SM CLR 09/05 A3032 RMK AO1